Time;durP1;ratioP1;P1;durP2;ratioP2;P2;SDS_P1;SDS_P2;PMS_P1;PMS_P2;Temp;Humidity;BMP_temperature;BMP_pressure;BME280_temperature;BME280_humidity;BME280_pressure;Samples;Min_cycle;Max_cycle;Signal;HPM_P1;HPM_P2
2022/05/07 00:01:06;;;;;;;;;;;15.90;88.50;;;;;;4939730;29;20046;-73
2022/05/07 00:03:31;;;;;;;;;;;15.80;88.70;;;;;;4939462;29;20013;-73
2022/05/07 00:05:57;;;;;;;;;;;15.90;88.80;;;;;;4939522;29;20335;-73
2022/05/07 00:08:22;;;;;;;;;;;15.80;88.70;;;;;;4922172;29;19930;-73
2022/05/07 00:10:48;;;;;;;;;;;15.80;88.70;;;;;;4939395;29;19917;-72
2022/05/07 00:13:13;;;;;;;;;;;15.80;88.90;;;;;;4939331;29;20367;-73
2022/05/07 00:15:39;;;;;;;;;;;15.80;88.90;;;;;;4939770;29;19975;-72
2022/05/07 00:18:06;;;;;;;;;;;15.80;87.30;;;;;;4939338;29;19950;-73
2022/05/07 00:20:35;;;;;;;;;;;15.80;88.30;;;;;;4939317;29;19918;-72
2022/05/07 00:23:01;;;;;;;;;;;15.80;88.70;;;;;;4939498;29;19918;-73
2022/05/07 00:25:27;;;;;;;;;;;15.70;89.00;;;;;;4939290;29;19917;-71
2022/05/07 00:27:53;;;;;;;;;;;15.70;89.20;;;;;;4939401;29;19933;-71
2022/05/07 00:30:18;;;;;;;;;;;15.70;89.20;;;;;;4939291;29;19911;-71
2022/05/07 00:32:44;;;;;;;;;;;15.70;89.10;;;;;;4939187;29;19934;-69
2022/05/07 00:35:10;;;;;;;;;;;15.70;88.80;;;;;;4938916;29;19915;-69
2022/05/07 00:37:36;;;;;;;;;;;15.60;89.30;;;;;;4938975;29;19918;-70
2022/05/07 00:40:02;;;;;;;;;;;15.60;89.40;;;;;;4938779;29;20006;-74
2022/05/07 00:42:28;;;;;;;;;;;15.60;89.20;;;;;;4938899;29;19975;-73
2022/05/07 00:44:53;;;;;;;;;;;15.50;88.70;;;;;;4938953;29;20010;-72
2022/05/07 00:47:26;;;;;;;;;;;15.50;89.20;;;;;;4938859;29;19910;-73
2022/05/07 00:49:53;;;;;;;;;;;15.50;89.40;;;;;;4921526;29;20275;-74
2022/05/07 00:52:19;;;;;;;;;;;15.50;89.30;;;;;;4938958;29;20337;-72
2022/05/07 00:54:45;;;;;;;;;;;15.50;89.40;;;;;;4938803;29;20077;-73
2022/05/07 00:57:14;;;;;;;;;;;15.50;89.40;;;;;;4938601;29;20263;-73
2022/05/07 00:59:40;;;;;;;;;;;15.50;89.30;;;;;;4938562;29;20287;-73
2022/05/07 01:02:06;;;;;;;;;;;15.50;89.30;;;;;;4938806;29;19914;-74
2022/05/07 01:04:31;;;;;;;;;;;15.50;89.40;;;;;;4938520;29;19914;-73
2022/05/07 01:06:57;;;;;;;;;;;15.50;89.00;;;;;;4918212;29;19915;-73
2022/05/07 01:09:22;;;;;;;;;;;15.50;89.40;;;;;;4936597;29;19923;-74
2022/05/07 01:11:48;;;;;;;;;;;15.50;89.30;;;;;;4938557;29;19918;-73
2022/05/07 01:14:14;;;;;;;;;;;15.50;89.00;;;;;;4938502;29;20350;-74
2022/05/07 01:16:39;;;;;;;;;;;15.50;89.10;;;;;;4938392;29;19911;-73
2022/05/07 01:19:05;;;;;;;;;;;15.40;89.40;;;;;;4938405;29;20286;-71
2022/05/07 01:21:30;;;;;;;;;;;15.40;89.60;;;;;;4938388;29;19915;-74
2022/05/07 01:23:56;;;;;;;;;;;15.40;89.70;;;;;;4937996;29;20294;-74
2022/05/07 01:26:22;;;;;;;;;;;15.40;89.70;;;;;;4938074;29;19970;-74
2022/05/07 01:28:48;;;;;;;;;;;15.40;89.90;;;;;;4938202;29;19917;-74
2022/05/07 01:31:14;;;;;;;;;;;15.40;90.30;;;;;;4938009;29;20387;-73
2022/05/07 01:33:40;;;;;;;;;;;15.40;90.10;;;;;;4938103;29;19911;-73
2022/05/07 01:36:16;;;;;;;;;;;15.40;90.10;;;;;;4937900;29;20354;-73
2022/05/07 01:38:41;;;;;;;;;;;15.40;90.00;;;;;;4937818;29;20378;-73
2022/05/07 01:41:07;;;;;;;;;;;15.40;89.80;;;;;;4937907;29;19911;-74
2022/05/07 01:43:32;;;;;;;;;;;15.30;90.10;;;;;;4937709;29;19919;-73
2022/05/07 01:45:58;;;;;;;;;;;15.40;90.10;;;;;;4937447;29;19910;-72
2022/05/07 01:48:24;;;;;;;;;;;15.40;90.10;;;;;;4937523;29;19966;-74
2022/05/07 01:50:50;;;;;;;;;;;15.40;90.10;;;;;;4937795;29;20357;-72
2022/05/07 01:53:15;;;;;;;;;;;15.40;90.10;;;;;;4937698;29;20335;-72
2022/05/07 01:55:41;;;;;;;;;;;15.40;90.00;;;;;;4937630;29;20013;-72
2022/05/07 01:58:07;;;;;;;;;;;15.40;90.10;;;;;;4937725;29;19914;-73
2022/05/07 02:00:33;;;;;;;;;;;15.30;90.20;;;;;;4937685;29;19969;-73
2022/05/07 02:02:59;;;;;;;;;;;15.30;90.30;;;;;;4937304;29;19926;-73
2022/05/07 02:05:25;;;;;;;;;;;15.30;90.30;;;;;;4937599;29;19911;-71
2022/05/07 02:07:51;;;;;;;;;;;15.30;90.50;;;;;;4936973;29;20017;-73
2022/05/07 02:10:17;;;;;;;;;;;15.30;90.40;;;;;;4937208;29;19961;-73
2022/05/07 02:12:42;;;;;;;;;;;15.30;90.50;;;;;;4937352;29;19999;-73
2022/05/07 02:15:08;;;;;;;;;;;15.20;90.40;;;;;;4937471;29;19910;-73
2022/05/07 02:17:34;;;;;;;;;;;15.20;90.60;;;;;;4937413;29;19911;-74
2022/05/07 02:20:00;;;;;;;;;;;15.20;90.50;;;;;;4937050;29;20282;-71
2022/05/07 02:22:25;;;;;;;;;;;15.20;90.50;;;;;;4937060;29;19945;-74
2022/05/07 02:24:51;;;;;;;;;;;15.20;90.60;;;;;;4936965;29;19914;-72
2022/05/07 02:27:17;;;;;;;;;;;15.20;90.40;;;;;;4937217;29;19919;-71
2022/05/07 02:29:42;;;;;;;;;;;15.30;90.40;;;;;;4937027;29;19993;-70
2022/05/07 02:32:08;;;;;;;;;;;15.20;90.40;;;;;;4937182;29;19933;-73
2022/05/07 02:34:34;;;;;;;;;;;15.20;90.40;;;;;;4937176;29;19919;-71
2022/05/07 02:37:00;;;;;;;;;;;15.20;90.40;;;;;;4936838;29;19946;-70
2022/05/07 02:39:26;;;;;;;;;;;15.20;90.30;;;;;;4936815;29;19911;-71
2022/05/07 02:44:36;;;;;;;;;;;15.20;90.40;;;;;;4936991;29;20270;-70
2022/05/07 02:47:01;;;;;;;;;;;15.20;90.50;;;;;;4936767;29;19914;-71
2022/05/07 02:49:27;;;;;;;;;;;15.20;90.40;;;;;;4936505;29;19915;-69
2022/05/07 02:51:52;;;;;;;;;;;15.20;90.50;;;;;;4936814;29;19911;-72
2022/05/07 02:54:18;;;;;;;;;;;15.20;90.40;;;;;;4936651;29;19910;-73
2022/05/07 02:56:43;;;;;;;;;;;15.20;90.10;;;;;;4935670;29;20322;-71
2022/05/07 02:59:09;;;;;;;;;;;15.20;89.60;;;;;;4936755;29;19910;-72
2022/05/07 03:01:34;;;;;;;;;;;15.30;88.20;;;;;;4936522;29;19918;-72
2022/05/07 03:04:00;;;;;;;;;;;15.20;87.40;;;;;;4936598;29;20073;-72
2022/05/07 03:06:25;;;;;;;;;;;15.20;87.80;;;;;;4936516;29;19934;-73
2022/05/07 03:08:52;;;;;;;;;;;15.20;87.70;;;;;;4919362;29;19945;-71
2022/05/07 03:11:18;;;;;;;;;;;15.20;87.30;;;;;;4936392;29;20422;-72
2022/05/07 03:13:43;;;;;;;;;;;15.30;86.40;;;;;;4936382;29;19938;-72
2022/05/07 03:16:09;;;;;;;;;;;15.40;88.40;;;;;;4936428;29;19915;-73
2022/05/07 03:18:38;;;;;;;;;;;15.40;86.50;;;;;;4936379;29;20275;-71
2022/05/07 03:21:03;;;;;;;;;;;15.40;85.40;;;;;;4936546;29;19911;-74
2022/05/07 03:23:29;;;;;;;;;;;15.40;85.10;;;;;;4936292;29;19919;-71
2022/05/07 03:25:55;;;;;;;;;;;15.40;85.20;;;;;;4936423;29;20002;-73
2022/05/07 03:28:21;;;;;;;;;;;15.40;85.20;;;;;;4936300;29;19910;-71
2022/05/07 03:30:46;;;;;;;;;;;15.40;85.50;;;;;;4936436;29;20001;-73
2022/05/07 03:33:12;;;;;;;;;;;15.40;85.60;;;;;;4936303;29;19911;-73
2022/05/07 03:35:39;;;;;;;;;;;15.40;84.80;;;;;;4936074;29;19911;-73
2022/05/07 03:38:04;;;;;;;;;;;15.50;85.00;;;;;;4936188;29;20271;-73
2022/05/07 03:40:32;;;;;;;;;;;15.60;84.20;;;;;;4936046;29;19910;-71
2022/05/07 03:42:57;;;;;;;;;;;15.40;85.40;;;;;;4936000;29;19942;-72
2022/05/07 03:45:23;;;;;;;;;;;15.40;85.50;;;;;;4936273;29;20004;-73
2022/05/07 03:47:49;;;;;;;;;;;15.30;85.70;;;;;;4936186;29;19933;-71
2022/05/07 03:50:15;;;;;;;;;;;15.20;86.10;;;;;;4935819;29;19918;-71
2022/05/07 03:55:24;;;;;;;;;;;15.30;85.20;;;;;;4936019;29;19918;-72
2022/05/07 03:57:50;;;;;;;;;;;15.40;84.20;;;;;;4935927;29;19914;-73
2022/05/07 04:00:16;;;;;;;;;;;15.50;83.90;;;;;;4935663;29;19917;-72
2022/05/07 04:02:41;;;;;;;;;;;15.40;84.10;;;;;;4935851;29;19929;-72
2022/05/07 04:05:07;;;;;;;;;;;15.40;84.40;;;;;;4936116;29;20001;-72
2022/05/07 04:07:33;;;;;;;;;;;15.40;83.90;;;;;;4936413;29;19978;-73
2022/05/07 04:09:59;;;;;;;;;;;15.40;83.60;;;;;;4922725;29;19965;-74
2022/05/07 04:12:24;;;;;;;;;;;15.40;83.70;;;;;;4939537;29;19918;-73
2022/05/07 04:14:50;;;;;;;;;;;15.50;83.30;;;;;;4939729;29;19911;-72
2022/05/07 04:17:15;;;;;;;;;;;15.40;83.80;;;;;;4939893;29;19911;-71
2022/05/07 04:19:41;;;;;;;;;;;15.40;83.70;;;;;;4939531;29;19915;-74
2022/05/07 04:22:06;;;;;;;;;;;15.40;83.30;;;;;;4939652;29;20029;-73
2022/05/07 04:24:36;;;;;;;;;;;15.40;83.20;;;;;;4939525;29;19926;-73
2022/05/07 04:27:02;;;;;;;;;;;15.40;83.70;;;;;;4939141;29;19922;-70
2022/05/07 04:29:28;;;;;;;;;;;15.30;83.50;;;;;;4939036;29;20004;-72
2022/05/07 04:31:53;;;;;;;;;;;15.20;83.70;;;;;;4939441;29;19928;-71
2022/05/07 04:34:19;;;;;;;;;;;15.10;84.80;;;;;;4939421;29;19911;-71
2022/05/07 04:36:44;;;;;;;;;;;15.10;85.20;;;;;;4939427;29;19918;-71
2022/05/07 04:39:10;;;;;;;;;;;14.90;85.70;;;;;;4939137;29;19911;-72
2022/05/07 04:41:36;;;;;;;;;;;15.00;85.20;;;;;;4939153;29;19911;-71
2022/05/07 04:44:01;;;;;;;;;;;14.90;85.30;;;;;;4939088;29;19923;-73
2022/05/07 04:46:27;;;;;;;;;;;15.10;86.10;;;;;;4939160;29;19937;-71
2022/05/07 04:48:52;;;;;;;;;;;15.20;86.20;;;;;;4939006;29;19911;-72
2022/05/07 04:51:18;;;;;;;;;;;15.20;87.60;;;;;;4939104;29;19911;-71
2022/05/07 04:53:44;;;;;;;;;;;15.40;86.10;;;;;;4938735;29;19966;-70
2022/05/07 04:56:10;;;;;;;;;;;15.40;86.40;;;;;;4948450;29;19934;-71
2022/05/07 04:58:35;;;;;;;;;;;15.30;88.10;;;;;;4957086;29;19918;-71
2022/05/07 05:01:01;;;;;;;;;;;15.40;87.20;;;;;;4956217;29;20051;-73
2022/05/07 05:03:27;;;;;;;;;;;15.40;85.00;;;;;;4955898;29;19942;-71
2022/05/07 05:05:52;;;;;;;;;;;15.50;85.50;;;;;;4942676;29;19911;-72
2022/05/07 05:08:18;;;;;;;;;;;15.40;86.30;;;;;;4942027;29;20371;-73
2022/05/07 05:10:43;;;;;;;;;;;15.40;84.80;;;;;;4942887;29;20383;-72
2022/05/07 05:13:09;;;;;;;;;;;15.60;81.60;;;;;;4952706;29;19911;-70
2022/05/07 05:15:35;;;;;;;;;;;15.60;85.00;;;;;;4956579;29;19910;-71
2022/05/07 05:18:01;;;;;;;;;;;15.60;82.80;;;;;;4956565;29;19910;-73
2022/05/07 05:20:26;;;;;;;;;;;15.50;82.20;;;;;;4952070;29;19980;-73
2022/05/07 05:22:52;;;;;;;;;;;15.60;86.20;;;;;;4952242;29;19942;-74
2022/05/07 05:25:20;;;;;;;;;;;15.70;84.70;;;;;;4953282;29;19918;-72
2022/05/07 05:27:46;;;;;;;;;;;15.70;85.10;;;;;;4953745;29;19911;-73
2022/05/07 05:30:12;;;;;;;;;;;15.70;83.70;;;;;;4954466;29;19911;-72
2022/05/07 05:32:37;;;;;;;;;;;15.90;83.50;;;;;;4936859;29;19949;-74
2022/05/07 05:35:03;;;;;;;;;;;15.90;80.50;;;;;;4954210;29;19911;-71
2022/05/07 05:37:30;;;;;;;;;;;15.90;80.90;;;;;;4955199;29;19998;-71
2022/05/07 05:39:55;;;;;;;;;;;15.80;80.60;;;;;;4953286;29;19917;-70
2022/05/07 05:42:21;;;;;;;;;;;15.80;81.00;;;;;;4954424;29;20302;-73
2022/05/07 05:44:47;;;;;;;;;;;15.80;81.10;;;;;;4954435;29;19923;-73
2022/05/07 05:47:12;;;;;;;;;;;15.70;80.00;;;;;;4951585;29;19945;-71
2022/05/07 05:49:38;;;;;;;;;;;15.60;80.90;;;;;;4949059;29;19910;-71
2022/05/07 05:52:04;;;;;;;;;;;15.60;81.60;;;;;;4946396;29;19957;-70
2022/05/07 05:54:30;;;;;;;;;;;15.60;79.90;;;;;;4944365;29;19914;-70
2022/05/07 05:56:56;;;;;;;;;;;15.70;80.40;;;;;;4941808;29;19934;-69
2022/05/07 05:59:21;;;;;;;;;;;15.80;80.90;;;;;;4940759;29;19977;-71
2022/05/07 06:01:47;;;;;;;;;;;15.90;80.90;;;;;;4941189;29;20407;-70
2022/05/07 06:04:14;;;;;;;;;;;15.90;80.50;;;;;;4941553;29;20319;-73
2022/05/07 06:06:39;;;;;;;;;;;15.90;79.80;;;;;;4941349;29;19911;-75
2022/05/07 06:09:05;;;;;;;;;;;16.10;79.90;;;;;;4945032;29;19942;-70
2022/05/07 06:11:31;;;;;;;;;;;16.20;79.20;;;;;;4951653;29;19922;-75
2022/05/07 06:13:56;;;;;;;;;;;16.40;79.20;;;;;;4951711;29;19911;-72
2022/05/07 06:16:22;;;;;;;;;;;16.40;77.70;;;;;;4954184;29;19926;-75
2022/05/07 06:18:47;;;;;;;;;;;16.50;77.60;;;;;;4954299;29;19922;-72
2022/05/07 06:21:13;;;;;;;;;;;16.30;77.30;;;;;;4955136;29;20418;-75
2022/05/07 06:23:38;;;;;;;;;;;16.00;79.10;;;;;;4952529;29;20397;-75
2022/05/07 06:28:48;;;;;;;;;;;16.10;80.00;;;;;;4943694;29;19918;-77
2022/05/07 06:31:17;;;;;;;;;;;16.20;79.90;;;;;;4940206;29;19911;-74
2022/05/07 06:33:43;;;;;;;;;;;16.20;80.30;;;;;;4939587;29;19911;-74
2022/05/07 06:36:09;;;;;;;;;;;16.20;80.20;;;;;;4937174;29;20283;-72
2022/05/07 06:38:35;;;;;;;;;;;16.20;78.80;;;;;;4937479;29;19938;-72
2022/05/07 06:41:04;;;;;;;;;;;16.00;78.80;;;;;;4937632;29;19974;-71
2022/05/07 06:43:31;;;;;;;;;;;15.90;78.50;;;;;;4937475;29;19918;-70
2022/05/07 06:45:57;;;;;;;;;;;15.90;78.30;;;;;;4937298;29;19954;-72
2022/05/07 06:48:23;;;;;;;;;;;15.90;78.00;;;;;;4937579;29;19911;-73
2022/05/07 06:50:49;;;;;;;;;;;15.90;79.20;;;;;;4937752;29;19911;-71
2022/05/07 06:53:14;;;;;;;;;;;15.80;79.30;;;;;;4937608;29;19918;-70
2022/05/07 06:55:55;;;;;;;;;;;15.80;79.90;;;;;;4937832;29;19911;-69
2022/05/07 06:58:25;;;;;;;;;;;15.80;79.90;;;;;;4938434;29;20006;-71
2022/05/07 07:00:50;;;;;;;;;;;15.80;80.00;;;;;;4939013;29;19971;-70
2022/05/07 07:03:16;;;;;;;;;;;15.70;79.70;;;;;;4937435;29;19961;-72
2022/05/07 07:05:42;;;;;;;;;;;15.70;79.80;;;;;;4937984;29;19914;-75
2022/05/07 07:08:08;;;;;;;;;;;15.70;80.30;;;;;;4937728;29;20944;-78
2022/05/07 07:10:33;;;;;;;;;;;15.80;80.20;;;;;;4940534;29;19922;-78
2022/05/07 07:12:59;;;;;;;;;;;15.90;80.40;;;;;;4938135;29;19911;-75
2022/05/07 07:15:25;;;;;;;;;;;16.00;79.40;;;;;;4940741;29;19911;-71
2022/05/07 07:17:51;;;;;;;;;;;16.00;78.90;;;;;;4948793;29;19899;-73
2022/05/07 07:20:17;;;;;;;;;;;16.00;79.30;;;;;;4951890;29;19911;-73
2022/05/07 07:22:44;;;;;;;;;;;15.90;79.60;;;;;;4952435;29;19923;-68
2022/05/07 07:25:11;;;;;;;;;;;16.00;80.10;;;;;;4953280;29;19967;-72
2022/05/07 07:27:36;;;;;;;;;;;15.90;80.60;;;;;;4953731;29;19911;-67
2022/05/07 07:30:02;;;;;;;;;;;15.80;80.00;;;;;;4934970;29;19918;-68
2022/05/07 07:32:28;;;;;;;;;;;15.90;80.00;;;;;;4932285;29;19911;-68
2022/05/07 07:34:54;;;;;;;;;;;15.90;80.20;;;;;;4951594;29;19895;-67
2022/05/07 07:37:20;;;;;;;;;;;15.90;79.60;;;;;;4952625;29;19898;-68
2022/05/07 07:39:45;;;;;;;;;;;15.90;79.90;;;;;;4951997;29;19966;-69
2022/05/07 07:42:11;;;;;;;;;;;16.00;79.50;;;;;;4940135;29;19914;-68
2022/05/07 07:44:37;;;;;;;;;;;16.00;80.00;;;;;;4942895;29;19962;-69
2022/05/07 07:49:46;;;;;;;;;;;16.00;79.50;;;;;;4964339;23;20349;-56
2022/05/07 07:52:12;;;;;;;;;;;16.20;78.70;;;;;;4959110;29;19910;-59
2022/05/07 07:54:38;;;;;;;;;;;16.20;78.30;;;;;;4958948;29;19910;-59
2022/05/07 07:57:04;;;;;;;;;;;16.20;79.00;;;;;;4959002;29;20053;-57
2022/05/07 07:59:30;;;;;;;;;;;16.30;79.20;;;;;;4941551;29;19917;-57
2022/05/07 08:01:56;;;;;;;;;;;16.40;78.70;;;;;;4958750;29;19910;-60
2022/05/07 08:04:25;;;;;;;;;;;16.50;79.30;;;;;;4958722;29;19918;-59
2022/05/07 08:11:40;;;;;;;;;;;16.50;77.70;;;;;;4958970;29;19915;-59
2022/05/07 08:12:20;;;;;;;;;;;16.60;77.60;;;;;;4958566;29;20274;-59
2022/05/07 08:14:46;;;;;;;;;;;16.70;77.70;;;;;;4958614;29;19911;-59
2022/05/07 08:17:13;;;;;;;;;;;16.90;76.80;;;;;;4958626;29;19966;-59
2022/05/07 08:19:39;;;;;;;;;;;17.00;75.40;;;;;;4958426;29;19910;-64
2022/05/07 08:22:05;;;;;;;;;;;17.10;75.00;;;;;;4958411;29;19914;-57
2022/05/07 08:24:31;;;;;;;;;;;17.10;75.60;;;;;;4958709;29;19919;-61
2022/05/07 08:26:56;;;;;;;;;;;17.00;75.20;;;;;;4958308;29;19910;-57
2022/05/07 08:29:23;;;;;;;;;;;17.10;75.00;;;;;;4958248;29;20834;-59
2022/05/07 08:31:50;;;;;;;;;;;17.10;75.30;;;;;;4958395;29;20244;-60
2022/05/07 08:34:15;;;;;;;;;;;17.20;75.90;;;;;;4958240;29;20279;-60
2022/05/07 08:36:41;;;;;;;;;;;17.20;76.30;;;;;;4958480;29;19918;-58
2022/05/07 08:39:06;;;;;;;;;;;17.20;75.80;;;;;;4958087;29;19953;-60
2022/05/07 08:41:32;;;;;;;;;;;17.30;76.20;;;;;;4958412;29;19969;-60
2022/05/07 08:43:58;;;;;;;;;;;17.50;75.70;;;;;;4957987;29;19922;-59
2022/05/07 08:46:24;;;;;;;;;;;17.60;74.90;;;;;;4958006;29;19914;-57
2022/05/07 08:48:51;;;;;;;;;;;17.60;73.30;;;;;;4960428;29;19915;-57
2022/05/07 08:51:18;;;;;;;;;;;17.70;73.70;;;;;;4959993;29;19918;-60
2022/05/07 08:53:44;;;;;;;;;;;17.70;74.10;;;;;;4957326;28;19946;-57
2022/05/07 08:56:10;;;;;;;;;;;17.70;73.80;;;;;;4957238;29;20440;-60
2022/05/07 08:58:36;;;;;;;;;;;17.80;73.00;;;;;;4958232;29;19918;-59
2022/05/07 09:01:02;;;;;;;;;;;17.70;73.10;;;;;;4957934;29;20282;-60
2022/05/07 09:03:38;;;;;;;;;;;17.70;73.80;;;;;;4957845;29;19918;-57
2022/05/07 09:06:14;;;;;;;;;;;17.90;73.10;;;;;;4957677;29;20001;-57
2022/05/07 09:08:39;;;;;;;;;;;17.90;73.30;;;;;;4957744;29;19918;-58
2022/05/07 09:11:05;;;;;;;;;;;18.00;73.40;;;;;;4957509;29;19918;-58
2022/05/07 09:13:33;;;;;;;;;;;18.00;73.10;;;;;;4957481;29;19945;-57
2022/05/07 09:15:59;;;;;;;;;;;18.00;72.60;;;;;;4957619;29;19991;-57
2022/05/07 09:18:25;;;;;;;;;;;18.00;73.10;;;;;;4957421;29;20379;-57
2022/05/07 09:21:16;;;;;;;;;;;18.10;72.00;;;;;;4957745;29;20013;-58
2022/05/07 09:23:45;;;;;;;;;;;18.10;71.10;;;;;;4957417;29;19922;-57
2022/05/07 09:26:22;;;;;;;;;;;18.20;72.40;;;;;;4957386;29;19910;-57
2022/05/07 09:28:47;;;;;;;;;;;18.20;70.80;;;;;;4957399;29;19917;-57
2022/05/07 09:31:20;;;;;;;;;;;18.40;71.20;;;;;;4957319;29;19911;-58
2022/05/07 09:33:46;;;;;;;;;;;18.40;71.10;;;;;;4957347;29;20270;-59
2022/05/07 09:36:12;;;;;;;;;;;18.60;70.80;;;;;;4957180;29;19910;-59
2022/05/07 09:38:38;;;;;;;;;;;18.70;70.90;;;;;;4957308;29;19918;-57
2022/05/07 09:41:04;;;;;;;;;;;19.00;70.90;;;;;;4957144;29;19910;-58
2022/05/07 09:43:31;;;;;;;;;;;19.20;69.10;;;;;;4956779;29;19918;-57
2022/05/07 09:45:57;;;;;;;;;;;19.30;68.50;;;;;;4956998;29;19942;-60
2022/05/07 09:48:22;;;;;;;;;;;19.40;68.30;;;;;;4957043;29;19910;-59
2022/05/07 09:50:48;;;;;;;;;;;19.60;67.60;;;;;;4956739;29;19958;-57
2022/05/07 09:58:44;;;;;;;;;;;19.70;65.10;;;;;;4956863;29;19989;-57
2022/05/07 10:01:21;;;;;;;;;;;19.80;66.10;;;;;;4956540;29;20359;-58
2022/05/07 10:03:47;;;;;;;;;;;19.90;65.70;;;;;;4956443;29;19926;-57
2022/05/07 10:06:31;;;;;;;;;;;20.00;63.90;;;;;;4956131;28;19911;-57
2022/05/07 10:09:21;;;;;;;;;;;20.10;63.90;;;;;;4956457;29;19917;-58
2022/05/07 10:11:51;;;;;;;;;;;20.00;61.70;;;;;;4946192;29;19917;-59
2022/05/07 10:14:27;;;;;;;;;;;20.10;62.20;;;;;;4956359;29;19910;-59
2022/05/07 10:17:00;;;;;;;;;;;20.10;61.20;;;;;;4956081;29;19969;-57
2022/05/07 10:19:44;;;;;;;;;;;20.10;61.80;;;;;;4956223;29;19914;-61
2022/05/07 10:22:24;;;;;;;;;;;19.90;60.50;;;;;;4956030;29;20005;-57
2022/05/07 10:25:04;;;;;;;;;;;19.70;59.80;;;;;;4956460;29;19914;-58
2022/05/07 10:27:30;;;;;;;;;;;19.60;59.30;;;;;;4956190;29;19911;-57
2022/05/07 10:30:05;;;;;;;;;;;19.50;60.30;;;;;;4955950;29;19965;-57
2022/05/07 10:32:43;;;;;;;;;;;19.50;62.10;;;;;;4956098;29;19914;-60
2022/05/07 10:35:09;;;;;;;;;;;19.50;62.50;;;;;;4956118;29;19910;-56
2022/05/07 10:37:39;;;;;;;;;;;19.50;62.20;;;;;;4955802;29;19914;-64
2022/05/07 10:40:10;;;;;;;;;;;19.50;61.50;;;;;;4955860;29;19911;-58
2022/05/07 10:42:39;;;;;;;;;;;19.40;62.00;;;;;;4955996;29;20401;-57
2022/05/07 10:45:20;;;;;;;;;;;19.40;63.00;;;;;;4955762;29;19910;-57
2022/05/07 10:47:53;;;;;;;;;;;19.40;63.20;;;;;;4955979;29;19958;-57
2022/05/07 10:50:20;;;;;;;;;;;19.40;63.20;;;;;;4955445;29;19926;-57
2022/05/07 10:52:53;;;;;;;;;;;19.40;63.70;;;;;;4955491;29;19910;-57
2022/05/07 10:55:23;;;;;;;;;;;19.30;64.10;;;;;;4955504;29;19946;-58
2022/05/07 10:57:48;;;;;;;;;;;19.20;62.90;;;;;;4955829;29;19911;-60
2022/05/07 11:00:17;;;;;;;;;;;19.30;63.10;;;;;;4955565;29;20365;-61
2022/05/07 11:02:44;;;;;;;;;;;19.40;63.50;;;;;;4955588;29;19915;-57
2022/05/07 11:05:11;;;;;;;;;;;19.50;63.70;;;;;;4955479;29;20066;-57
2022/05/07 11:07:37;;;;;;;;;;;19.50;63.90;;;;;;4955844;29;19966;-58
2022/05/07 11:10:03;;;;;;;;;;;19.50;63.70;;;;;;4955375;29;19915;-57
2022/05/07 11:12:28;;;;;;;;;;;19.50;64.20;;;;;;4938228;29;19997;-57
2022/05/07 11:14:54;;;;;;;;;;;19.50;64.10;;;;;;4955380;29;19914;-57
2022/05/07 11:17:30;;;;;;;;;;;19.60;64.50;;;;;;4954810;29;19934;-60
2022/05/07 11:19:57;;;;;;;;;;;19.60;65.50;;;;;;4955246;29;20422;-60
2022/05/07 11:22:29;;;;;;;;;;;19.40;64.30;;;;;;4955357;29;19926;-59
2022/05/07 11:24:56;;;;;;;;;;;19.30;65.80;;;;;;4955364;29;19918;-59
2022/05/07 11:27:25;;;;;;;;;;;19.30;66.40;;;;;;4956292;29;19911;-58
2022/05/07 11:29:52;;;;;;;;;;;19.20;66.30;;;;;;4958324;29;19965;-57
2022/05/07 11:32:20;;;;;;;;;;;19.00;66.60;;;;;;4956650;29;21283;-57
2022/05/07 11:34:46;;;;;;;;;;;19.00;67.20;;;;;;4956008;29;19910;-59
2022/05/07 11:37:22;;;;;;;;;;;19.10;67.50;;;;;;4955225;29;20023;-60
2022/05/07 11:39:51;;;;;;;;;;;19.10;68.70;;;;;;4938143;29;19949;-59
2022/05/07 11:42:35;;;;;;;;;;;19.20;72.30;;;;;;4955356;29;19954;-58
2022/05/07 11:48:25;;;;;;;;;;;18.90;77.20;;;;;;4956184;29;20278;-59
2022/05/07 11:50:54;;;;;;;;;;;18.60;78.20;;;;;;4896553;29;19930;-61
2022/05/07 11:53:20;;;;;;;;;;;18.50;82.30;;;;;;4946682;29;19961;-59
2022/05/07 11:55:46;;;;;;;;;;;18.30;78.90;;;;;;4955924;29;19911;-59
2022/05/07 11:58:12;;;;;;;;;;;18.20;81.40;;;;;;4955636;29;19969;-60
2022/05/07 12:00:44;;;;;;;;;;;18.20;82.00;;;;;;4955645;29;19919;-60
2022/05/07 12:03:10;;;;;;;;;;;18.10;83.50;;;;;;4955130;29;19926;-59
2022/05/07 12:05:40;;;;;;;;;;;18.00;85.60;;;;;;4955070;29;19911;-59
2022/05/07 12:08:15;;;;;;;;;;;17.90;86.20;;;;;;4954943;29;20363;-58
2022/05/07 12:10:42;;;;;;;;;;;17.90;86.40;;;;;;4956786;29;20058;-58
2022/05/07 12:13:08;;;;;;;;;;;17.80;86.70;;;;;;4955840;29;20015;-59
2022/05/07 12:18:19;;;;;;;;;;;17.90;87.80;;;;;;4955692;29;19964;-58
2022/05/07 12:20:45;;;;;;;;;;;17.90;88.50;;;;;;4954852;29;20009;-59
2022/05/07 12:31:23;;;;;;;;;;;17.90;85.20;;;;;;4958387;29;19957;-57
2022/05/07 12:33:48;;;;;;;;;;;18.00;83.80;;;;;;4958340;29;19946;-60
2022/05/07 12:36:14;;;;;;;;;;;18.10;82.10;;;;;;4958141;29;19950;-59
2022/05/07 12:38:39;;;;;;;;;;;18.00;82.20;;;;;;4958078;29;19915;-60
2022/05/07 12:41:05;;;;;;;;;;;18.00;83.40;;;;;;4958134;29;19910;-65
2022/05/07 12:43:30;;;;;;;;;;;18.20;80.80;;;;;;4957963;29;19968;-61
2022/05/07 12:45:56;;;;;;;;;;;18.30;80.50;;;;;;4958047;29;19916;-57
2022/05/07 12:48:22;;;;;;;;;;;18.30;80.60;;;;;;4958226;29;19910;-59
2022/05/07 12:50:47;;;;;;;;;;;18.30;80.80;;;;;;4957956;29;19930;-57
2022/05/07 12:53:14;;;;;;;;;;;18.30;82.10;;;;;;4958116;29;19911;-58
2022/05/07 12:55:40;;;;;;;;;;;18.20;83.40;;;;;;4957942;29;20363;-58
2022/05/07 12:58:08;;;;;;;;;;;18.10;82.10;;;;;;4957927;29;19917;-61
2022/05/07 13:00:33;;;;;;;;;;;17.90;83.50;;;;;;4957601;29;19921;-61
2022/05/07 13:03:01;;;;;;;;;;;17.90;84.70;;;;;;4957687;29;19919;-59
2022/05/07 13:05:27;;;;;;;;;;;17.90;84.60;;;;;;4957805;29;19950;-61
2022/05/07 13:07:53;;;;;;;;;;;18.10;82.50;;;;;;4957672;29;19954;-58
2022/05/07 13:10:19;;;;;;;;;;;18.20;83.10;;;;;;4957748;29;20346;-58
2022/05/07 13:12:46;;;;;;;;;;;18.30;82.10;;;;;;4957580;29;19922;-60
2022/05/07 13:15:12;;;;;;;;;;;18.40;81.10;;;;;;4957599;29;19973;-58
2022/05/07 13:17:38;;;;;;;;;;;18.40;81.90;;;;;;4957661;29;19915;-58
2022/05/07 13:20:03;;;;;;;;;;;18.40;82.00;;;;;;4957649;29;19914;-59
2022/05/07 13:22:32;;;;;;;;;;;18.40;81.10;;;;;;4957348;29;19985;-59
2022/05/07 13:24:57;;;;;;;;;;;18.50;79.60;;;;;;4957466;29;20017;-60
2022/05/07 13:27:23;;;;;;;;;;;18.50;78.40;;;;;;4957343;29;19960;-59
2022/05/07 13:29:49;;;;;;;;;;;18.60;74.50;;;;;;4957393;29;19910;-59
2022/05/07 13:32:14;;;;;;;;;;;18.60;72.30;;;;;;4957482;29;19919;-57
2022/05/07 13:34:41;;;;;;;;;;;18.60;71.90;;;;;;4957131;29;20383;-58
2022/05/07 13:37:07;;;;;;;;;;;18.70;75.60;;;;;;4957088;29;19914;-60
2022/05/07 13:39:33;;;;;;;;;;;18.80;77.00;;;;;;4957054;29;20371;-58
2022/05/07 13:42:00;;;;;;;;;;;18.70;78.90;;;;;;4956163;29;19918;-57
2022/05/07 13:44:26;;;;;;;;;;;18.60;76.80;;;;;;4957159;29;19978;-59
2022/05/07 13:46:52;;;;;;;;;;;18.70;80.60;;;;;;4956945;29;19911;-59
2022/05/07 13:49:17;;;;;;;;;;;18.70;78.00;;;;;;4956701;29;20064;-60
2022/05/07 13:51:43;;;;;;;;;;;18.80;80.60;;;;;;4956890;29;20371;-59
2022/05/07 13:54:08;;;;;;;;;;;18.80;81.10;;;;;;4956804;29;19954;-59
2022/05/07 13:56:34;;;;;;;;;;;18.80;82.90;;;;;;4956655;29;19918;-62
2022/05/07 13:59:00;;;;;;;;;;;18.60;82.30;;;;;;4956847;29;20282;-60
2022/05/07 14:01:25;;;;;;;;;;;18.70;82.80;;;;;;4956880;29;20335;-59
2022/05/07 14:03:51;;;;;;;;;;;18.70;85.50;;;;;;4956688;29;19919;-59
2022/05/07 14:06:19;;;;;;;;;;;18.70;84.50;;;;;;4959554;29;20350;-59
2022/05/07 14:08:44;;;;;;;;;;;18.70;85.10;;;;;;4957242;29;19958;-59
2022/05/07 14:11:10;;;;;;;;;;;18.70;84.00;;;;;;4956483;29;19914;-59
2022/05/07 14:13:35;;;;;;;;;;;18.80;84.70;;;;;;4956393;29;20010;-60
2022/05/07 14:16:01;;;;;;;;;;;18.90;85.00;;;;;;4956827;29;19918;-58
2022/05/07 14:18:27;;;;;;;;;;;18.80;83.00;;;;;;4956533;29;20410;-59
2022/05/07 14:20:54;;;;;;;;;;;18.80;82.20;;;;;;4956509;29;19918;-59
2022/05/07 14:23:21;;;;;;;;;;;18.90;81.70;;;;;;4956188;29;19941;-61
2022/05/07 14:25:46;;;;;;;;;;;19.00;78.80;;;;;;4956226;29;19917;-59
2022/05/07 14:28:12;;;;;;;;;;;19.00;76.40;;;;;;4956686;29;19910;-59
2022/05/07 14:30:38;;;;;;;;;;;18.90;78.60;;;;;;4956170;29;19917;-63
2022/05/07 14:33:06;;;;;;;;;;;18.80;78.20;;;;;;4956219;29;19965;-65
2022/05/07 14:35:32;;;;;;;;;;;18.80;76.00;;;;;;4956541;29;20401;-64
2022/05/07 14:37:57;;;;;;;;;;;18.60;76.40;;;;;;4956419;29;19910;-61
2022/05/07 14:40:29;;;;;;;;;;;18.50;75.70;;;;;;4955913;29;20347;-64
2022/05/07 14:42:55;;;;;;;;;;;18.50;76.90;;;;;;4956300;29;20367;-66
2022/05/07 14:45:22;;;;;;;;;;;18.50;76.30;;;;;;4956271;29;19915;-64
2022/05/07 14:47:48;;;;;;;;;;;18.50;79.20;;;;;;4956007;29;19958;-59